Ride Results

Kilkivan (15-06-2008)
Ride distance: 80.0 km

Outcomes - Kilkivan (15-06-2008)
Division No. of Entries Retired / DNE Completed Withdrawn Ineligible V/O Percentage Completed
HW 19 - 14 1 - 4 73.68%
MW 35 - 23 1 - 11 65.71%
LW 21 - 14 1 - 6 66.67%
JN 8 - 8 - - - 100.00%
Totals 83 - 59 3 - 21 71.08%
Results - Kilkivan (15-06-2008)
No. Rider Horse Place Time Leg Speeds Total
Km/Hr
H/R bpm
Heavyweight
26 David Pembroke Rahim Whispah 1 3:31:00 22.6, 22.8 22.75 25, 54, 50 (Avg:52)
49 Rod Strahan Shardell Azrark 1 (BC) 3:31:00 22.6, 22.8 22.75 30, 45, 42 (Avg:43)
21 Maurice Gray Chazar Fire Nic Ice 3 3:57:00 21.4, 19.1 20.25 38, 47, 46 (Avg:46)
14 Paul Lengronne Cherox Kariim 4 4:28:00 20.8, 15.6 17.91 32, 38, 46 (Avg:42)
7 Niels Lochtenberg Matta Mia Dollar 4 4:28:00 17.7, 18.0 17.91 35, 47, 48 (Avg:47)
38 John Dugan Performance Park Lady Kharisma 6 4:38:00 16.7, 17.7 17.27 33, 42, 40 (Avg:41)
79 Tim Weismann Danic Park Miss Julianne 7 5:49:00 14.0, 13.4 13.75 40, 44, 52 (Avg:48)
45 Gerard Bou Gurangada Sundance 8 6:00:00 13.3, 13.3 13.33 30, 37, 52 (Avg:44)
47 Mark Nimon Abbeywood Rumor 9 6:01:00 13.8, 12.7 13.30 33, 42, 50 (Avg:46)
73 Peter Casey Lagoon Hill Rapadash 10 6:05:00 14.0, 12.3 13.15 32, 41, 47 (Avg:44)
5 Jordon Dent Hirstglen Louisville 11 6:11:00 12.9, 12.9 12.94 28, 39, 44 (Avg:41)
17 Paul Fitzgerald Lanamere Nightmusic 12 6:18:00 13.7, 11.8 12.70 38, 42, 41 (Avg:41)
64 Lisa Ash Shardell Patrice 13 6:46:00 14.0, 10.2 11.82 34, 50, 53 (Avg:51)
60 Stan Zischke Atlas 14 7:24:00 10.1, 11.5 10.81 33, 38, 40 (Avg:39)
55 Steve Barlow Dunwingeri Maashhar Lame L2 0:00:00 15.0, 13.4 - 40, 43, 48 (Avg:45)
6 Olaf Lochtenberg Matta Mia Ademi Widthdrawn L2 0:00:00 - - 44, 44, 43 (Avg:43)
59 Matthew Sample Leopard Lame L2 0:00:00 21.8, 20.8 - 32, 47, 51 (Avg:49)
50 Suzanne Smith Send in D'Calvary Lame L2 0:00:00 13.8, 11.3 - 42, 49, 54 (Avg:51)
53 Dan Winkel Roheryn Cavalier Lame L1 0:00:00 12.9 - 41, 41 (Avg:41)
Middleweight
20 Stephen Gray Kasbah Kid 1 (BC) 3:21:00 22.6, 25.2 23.88 38, 41, 42 (Avg:41)
24 Robyn Pembroke Mt Eerwah Nikita 2 4:05:00 21.6, 17.9 19.59 34, 42, 45 (Avg:43)
41 Fiona Fenech Cedar Springs The Full Monty 3 4:24:00 18.8, 17.5 18.18 37, 43, 41 (Avg:42)
65 Gayle Holmes Aloha Spartacus 4 4:38:00 16.6, 17.9 17.27 36, 39, 40 (Avg:39)
4 Vanessa Tiffen Hirstglen Mustang Sally 5 4:49:00 16.3, 16.9 16.61 34, 42, 44 (Avg:43)
34 Derryn Nix Dunbar El Maestro 6 5:09:00 14.9, 16.1 15.53 33, 43, 50 (Avg:46)
37 Karen Weeden Claralee Silverdo 7 5:38:00 15.3, 13.1 14.20 32, 48, 46 (Avg:47)
43 Mark Grogan Woomera Sovereign 8 5:41:00 14.0, 14.1 14.08 36, 43, 54 (Avg:48)
9 Viv Butler Sadaqa 9 5:43:00 16.1, 12.3 13.99 39, 42, 50 (Avg:46)
30 Heather Parry Miss Dee Fi 10 5:54:00 13.7, 13.3 13.56 37, 40, 44 (Avg:42)
44 Kerrie McAuliffe Mistafa 11 6:00:00 13.3, 13.3 13.33 38, 39, 47 (Avg:43)
46 Elizabeth Paton Freelance Gaytu Boysey 11 6:00:00 13.3, 13.3 13.33 24, 38, 48 (Avg:43)
2 Donna Brooker Hirstglen Horizon 13 6:11:00 12.9, 12.9 12.94 25, 41, 42 (Avg:41)
63 Scott Hill Kalkadoon Kismet 14 6:12:00 13.7, 12.1 12.90 32, 38, 41 (Avg:39)
23 Tanya Zanow Cicada Lodge Oliver Twist 14 6:12:00 13.7, 12.1 12.90 39, 46, 48 (Avg:47)
16 Caroline Fitzgerald Lanamere Forte 16 6:18:00 13.7, 11.8 12.70 40, 41, 47 (Avg:44)
18 Julie Kemp Al Baraq 17 6:23:00 14.0, 11.3 12.53 32, 39, 48 (Avg:43)
19 Peter Pike Sundust Jack 17 6:23:00 14.0, 11.3 12.53 35, 46, 50 (Avg:48)
74 Billy Campbell Ceona Citation 19 6:34:00 14.0, 10.7 12.18 38, 40, 53 (Avg:46)
62 Kimberley Ryan Duo Park Orsum 20 6:46:00 10.9, 12.9 11.82 35, 42, 47 (Avg:44)
32 Raewyn Carter Maioro Nakita 21 7:15:00 12.4, 9.8 11.03 32, 41, 36 (Avg:38)
39 Ken Moir Eskdale Shakago Bae 21 7:15:00 12.4, 9.9 11.03 33, 41, 44 (Avg:42)
84 Olga Bartlett Cingala Royalle 23 7:35:00 10.3, 10.7 10.55 38, 44, 48 (Avg:46)
12 Dale Hargreaves Johroy Custom Made Heart Rate L2 0:00:00 21.8, 23.3 - 35, 45, 61 (Avg:53)
1 Libby Nichols Meltharina Moosa Lame L2 0:00:00 14.6, 11.9 - 34, 42, 53 (Avg:47)
82 Justin Otto Damanda Kaaluha Lame L2 0:00:00 13.8, 12.9 - 35, 41, 49 (Avg:45)
54 Anne Barlow Tyto Ivan Lame L1 0:00:00 15.0 - 40, 44 (Avg:44)
68 Judy Battams Denwells Lenzwela Lame L1 0:00:00 20.1 - 39, 46 (Avg:46)
15 Jane Davidson Devenward Imootat Lame L1 0:00:00 16.4 - 37, 43 (Avg:43)
70 Angela Head Splendacrest Ulysses Lame L1 0:00:00 13.7 - 40, 43 (Avg:43)
69 Carolyn Kent Nangamba Alisaar Widthdrawn L1 0:00:00 - - 37, 43 (Avg:43)
71 Tarnia Kittel Sahateyn Star Dancer Lame L1 0:00:00 16.6 - 37, 45 (Avg:45)
13 Marion Lengronne Banjo Star Lame L1 0:00:00 13.3 - 40, 52 (Avg:52)
42 Tony Standfield Pilgrim Lame L1 0:00:00 22.4 - 40, 42 (Avg:42)
76 Jackie Swan Longrun Liberty Lame L1 0:00:00 12.4 - 31, 41 (Avg:41)
Lightweight
33 Tylana Woodward Tallow Wood Sa Hassan 1 3:28:00 22.6, 23.5 23.08 39, 36, 41 (Avg:38)
57 Jeanna Maher Red Gum Trinket 2 (BC) 3:35:00 22.6, 22.0 22.33 38, 41, 47 (Avg:44)
40 Sally Genninges Arinya Park Nazzerin 3 4:11:00 21.8, 17.0 19.12 30, 46, 43 (Avg:44)
67 Renae Kuhn Captain's Creek Rupert 4 4:38:00 16.6, 17.9 17.27 34, 44, 44 (Avg:44)
36 Bridget Campbell Cameo Kinshaza 5 5:13:00 14.9, 15.6 15.34 35, 41, 45 (Avg:43)
8 Bobbi Lochtenberg Matta Mia Dayman 6 5:43:00 16.1, 12.3 13.99 33, 42, 45 (Avg:43)
35 Sue Jones El Castano Mirada 7 6:07:00 14.0, 12.2 13.08 30, 45, 41 (Avg:43)
52 Karen Winkel Xanadu Barabbous 7 6:07:00 12.9, 13.1 13.08 42, 41, 45 (Avg:43)
28 Lisa Sanchez Maf-Ue Sahmet 9 6:08:00 13.7, 12.4 13.04 36, 43, 55 (Avg:49)
51 Karen Mendoza Allyndah Expectation 10 6:24:00 13.8, 11.3 12.50 29, 43, 54 (Avg:48)
75 Katrina Draegar Rio Yasnah 11 6:34:00 14.0, 10.7 12.18 36, 42, 45 (Avg:43)
61 Saasha Grogan Brookleigh Callista 12 6:46:00 10.9, 12.9 11.82 33, 42, 50 (Avg:46)
31 Errol Watt Yul-Arai Hassan 13 7:15:00 12.4, 9.8 11.03 33, 39, 39 (Avg:39)
29 Cathy Herve Hilbrae Maxine 14 7:35:00 10.3, 10.7 10.55 36, 41, 40 (Avg:40)
22 Jocelyn Barnes Sahala Afrikhaan Lame L2 0:00:00 21.4, 21.8 - 36, 43, 45 (Avg:44)
25 Carla Jones Mt Eerwah Anastazia Lame L2 0:00:00 21.6, 17.9 - 28, 41, 44 (Avg:42)
77 Bec Miller Jayhal Cloud Heart Rate L2 0:00:00 21.6, 26.6 - 36, 51, 63 (Avg:57)
58 Leigh Ann Sample Shah-Vale Shamal Lame L2 0:00:00 21.6, 23.0 - 32, 45, 44 (Avg:44)
11 Terri Anderson Karim's Pride Widthdrawn L1 0:00:00 - - 33, 42 (Avg:42)
56 Janelle Taylor Kenley Marie Lame L1 0:00:00 10.9 - 31, 48 (Avg:48)
27 Amaya Thomas Kilkivan Msalute Lame L1 0:00:00 22.4 - 35, 42 (Avg:42)
Junior
83 David Anderson Jnr Tobinlee Ishmale 1 (BC) 3:28:00 21.6, 24.7 23.08 33, 47, 48 (Avg:47)
66 Ingrid Ambrosiussen Shanti 2 4:38:00 16.6, 17.9 17.27 31, 36, 43 (Avg:39)
78 Nikita Ellison Tarwarri Sharhim 3 5:49:00 14.0, 13.4 13.75 38, 43, 45 (Avg:44)
80 Jamie Green Ffire Storm 3 5:49:00 14.0, 13.4 13.75 37, 43, 50 (Avg:46)
81 Tasha Jeremy Tamar 3 5:49:00 14.0, 13.4 13.75 39, 39, 41 (Avg:40)
48 Hayden Graham Abbeywood Dallas 6 6:01:00 13.8, 12.7 13.30 39, 38, 56 (Avg:47)
3 Sharn Brooker Hirstglen Maybe 7 6:11:00 12.9, 12.9 12.94 33, 36, 41 (Avg:38)
10 Jade Vergis Meltharina Maralyc 8 6:46:00 10.9, 12.9 11.82 43, 50, 43 (Avg:46)